El Portal, Florida
Current Conditions -  °F | °C
As of 11:53 AM on Monday 22 Dec 2014 (Local Time) from KMIA Reporting Station
Broken Clouds Broken Clouds  
Wind Chill: 81°   Ceiling: 25000
Heat Index: 84°   Visibility: 10mi
Dew Point: 68°   Wind: 12mph
Humidity: 65%   Direction: 180°S
Pressure: 30.02"   Gusts: NA
Location:  25.852°N, 80.2071°W
Report Text: KMIA 221653Z 18010KT 10SM SCT024 BKN250 27/20 A3002 RMK AO2 SLP165 T02720200
Loading
Personal Weather Stations






























Interactive Weather Map New forecast layout! Learn more

10-Day Weather Forecast

Advertisements
Track Severe Weather on mobile